Terminal Aerodrome Forecast
Issued by NWS Topeka, KS

Home | Current Version | Previous Version | Graphics & Text | Print | Product List | Glossary On
Versions: 1 2 3 4 5 6 7 8 9 10 11 12 13 14
000
FTUS43 KTOP 231100
TAFTOP
TAF
KTOP 231125Z 2312/2412 28007KT P6SM BKN035
     FM231500 30012KT P6SM BKN020
     FM240000 33014G21KT 3SM -RASN BR OVC009=

USA.gov is the U.S. government's official web portal to all federal, state and local government web resources and services.